sensor_id;sensor_type;location;lat;lon;timestamp;temperature;humidity
22635;DHT22;11484;50.858;4.384;2022-12-18T00:01:24;-1.30;99.90
22635;DHT22;11484;50.858;4.384;2022-12-18T00:03:51;-1.30;99.90
22635;DHT22;11484;50.858;4.384;2022-12-18T00:06:17;-1.40;99.90
22635;DHT22;11484;50.858;4.384;2022-12-18T00:08:44;-1.30;99.90
22635;DHT22;11484;50.858;4.384;2022-12-18T00:11:16;-1.20;99.90
22635;DHT22;11484;50.858;4.384;2022-12-18T00:13:42;-1.10;99.90
22635;DHT22;11484;50.858;4.384;2022-12-18T00:16:13;-0.90;99.90
22635;DHT22;11484;50.858;4.384;2022-12-18T00:18:40;-0.80;99.90
22635;DHT22;11484;50.858;4.384;2022-12-18T00:21:07;-0.80;99.90
22635;DHT22;11484;50.858;4.384;2022-12-18T00:23:34;-0.80;99.90
22635;DHT22;11484;50.858;4.384;2022-12-18T00:26:01;-0.90;99.90
22635;DHT22;11484;50.858;4.384;2022-12-18T00:28:27;-0.90;99.90
22635;DHT22;11484;50.858;4.384;2022-12-18T00:31:01;-0.80;99.90
22635;DHT22;11484;50.858;4.384;2022-12-18T00:33:27;-0.70;99.90
22635;DHT22;11484;50.858;4.384;2022-12-18T00:35:53;-0.50;99.90
22635;DHT22;11484;50.858;4.384;2022-12-18T00:38:19;-0.40;99.90
22635;DHT22;11484;50.858;4.384;2022-12-18T00:40:44;-0.40;99.90
22635;DHT22;11484;50.858;4.384;2022-12-18T00:43:10;-0.30;99.90
22635;DHT22;11484;50.858;4.384;2022-12-18T00:45:36;-0.30;99.90
22635;DHT22;11484;50.858;4.384;2022-12-18T00:48:02;-0.40;99.90
22635;DHT22;11484;50.858;4.384;2022-12-18T00:50:27;-0.30;99.90
22635;DHT22;11484;50.858;4.384;2022-12-18T00:52:53;-0.40;99.90
22635;DHT22;11484;50.858;4.384;2022-12-18T00:55:19;-0.40;99.90
22635;DHT22;11484;50.858;4.384;2022-12-18T00:57:44;-0.30;99.90
22635;DHT22;11484;50.858;4.384;2022-12-18T01:00:13;-0.30;99.90
22635;DHT22;11484;50.858;4.384;2022-12-18T01:02:40;-0.40;99.90
22635;DHT22;11484;50.858;4.384;2022-12-18T01:05:07;-0.30;99.90
22635;DHT22;11484;50.858;4.384;2022-12-18T01:07:33;-0.30;99.90
22635;DHT22;11484;50.858;4.384;2022-12-18T01:09:59;-0.10;99.90
22635;DHT22;11484;50.858;4.384;2022-12-18T01:12:24;-0.10;99.90
22635;DHT22;11484;50.858;4.384;2022-12-18T01:14:50;0.00;99.90
22635;DHT22;11484;50.858;4.384;2022-12-18T01:17:16;0.00;99.90
22635;DHT22;11484;50.858;4.384;2022-12-18T01:19:42;0.00;99.90
22635;DHT22;11484;50.858;4.384;2022-12-18T01:22:07;0.00;99.90
22635;DHT22;11484;50.858;4.384;2022-12-18T01:24:33;-0.10;99.90
22635;DHT22;11484;50.858;4.384;2022-12-18T01:26:59;-0.20;99.90
22635;DHT22;11484;50.858;4.384;2022-12-18T01:29:25;-0.20;99.90
22635;DHT22;11484;50.858;4.384;2022-12-18T01:31:51;-0.20;99.90
22635;DHT22;11484;50.858;4.384;2022-12-18T01:34:17;-0.30;99.90
22635;DHT22;11484;50.858;4.384;2022-12-18T01:36:42;-0.30;99.90
22635;DHT22;11484;50.858;4.384;2022-12-18T01:39:11;-0.30;99.90
22635;DHT22;11484;50.858;4.384;2022-12-18T01:41:38;-0.30;99.90
22635;DHT22;11484;50.858;4.384;2022-12-18T01:44:58;-0.30;99.90
22635;DHT22;11484;50.858;4.384;2022-12-18T01:53:35;-0.10;99.90
22635;DHT22;11484;50.858;4.384;2022-12-18T01:55:43;-0.20;99.90
22635;DHT22;11484;50.858;4.384;2022-12-18T01:58:13;-0.10;99.90
22635;DHT22;11484;50.858;4.384;2022-12-18T02:00:39;-0.10;99.90
22635;DHT22;11484;50.858;4.384;2022-12-18T02:03:05;-0.10;99.90
22635;DHT22;11484;50.858;4.384;2022-12-18T02:11:07;0.00;99.90
22635;DHT22;11484;50.858;4.384;2022-12-18T02:13:53;0.00;99.90
22635;DHT22;11484;50.858;4.384;2022-12-18T02:18:59;0.00;99.90
22635;DHT22;11484;50.858;4.384;2022-12-18T02:21:45;0.00;99.90
22635;DHT22;11484;50.858;4.384;2022-12-18T02:24:46;-0.20;99.90
22635;DHT22;11484;50.858;4.384;2022-12-18T02:27:14;-0.30;99.90
22635;DHT22;11484;50.858;4.384;2022-12-18T02:29:49;-0.30;99.90
22635;DHT22;11484;50.858;4.384;2022-12-18T02:32:20;-0.30;99.90
22635;DHT22;11484;50.858;4.384;2022-12-18T02:34:48;-0.30;99.90
22635;DHT22;11484;50.858;4.384;2022-12-18T02:37:18;-0.40;99.90
22635;DHT22;11484;50.858;4.384;2022-12-18T02:39:46;-0.40;99.90
22635;DHT22;11484;50.858;4.384;2022-12-18T02:42:13;-0.40;99.90
22635;DHT22;11484;50.858;4.384;2022-12-18T02:44:48;-0.30;99.90
22635;DHT22;11484;50.858;4.384;2022-12-18T02:47:17;-0.20;99.90
22635;DHT22;11484;50.858;4.384;2022-12-18T02:49:58;-0.20;99.90
22635;DHT22;11484;50.858;4.384;2022-12-18T02:52:40;-0.30;99.90
22635;DHT22;11484;50.858;4.384;2022-12-18T02:58:13;-0.40;99.90
22635;DHT22;11484;50.858;4.384;2022-12-18T03:01:42;-0.60;99.90
22635;DHT22;11484;50.858;4.384;2022-12-18T03:03:59;-0.60;99.90
22635;DHT22;11484;50.858;4.384;2022-12-18T03:06:33;-0.70;99.90
22635;DHT22;11484;50.858;4.384;2022-12-18T03:09:09;-0.80;99.90
22635;DHT22;11484;50.858;4.384;2022-12-18T03:11:39;-0.90;99.90
22635;DHT22;11484;50.858;4.384;2022-12-18T03:14:26;-0.80;99.90
22635;DHT22;11484;50.858;4.384;2022-12-18T03:16:55;-0.80;99.90
22635;DHT22;11484;50.858;4.384;2022-12-18T03:19:27;-0.80;99.90
22635;DHT22;11484;50.858;4.384;2022-12-18T03:21:56;-0.70;99.90
22635;DHT22;11484;50.858;4.384;2022-12-18T03:24:24;-0.70;99.90
22635;DHT22;11484;50.858;4.384;2022-12-18T03:26:58;-0.60;99.90
22635;DHT22;11484;50.858;4.384;2022-12-18T03:29:35;-0.50;99.90
22635;DHT22;11484;50.858;4.384;2022-12-18T03:32:15;-0.50;99.90
22635;DHT22;11484;50.858;4.384;2022-12-18T03:34:44;-0.70;99.90
22635;DHT22;11484;50.858;4.384;2022-12-18T03:37:13;-0.90;99.90
22635;DHT22;11484;50.858;4.384;2022-12-18T03:39:38;-0.90;99.90
22635;DHT22;11484;50.858;4.384;2022-12-18T03:45:11;-0.90;99.90
22635;DHT22;11484;50.858;4.384;2022-12-18T03:53:22;-0.90;99.90
22635;DHT22;11484;50.858;4.384;2022-12-18T03:55:44;-0.90;99.90
22635;DHT22;11484;50.858;4.384;2022-12-18T03:58:13;-0.90;99.90
22635;DHT22;11484;50.858;4.384;2022-12-18T04:00:40;-1.00;99.90
22635;DHT22;11484;50.858;4.384;2022-12-18T04:03:07;-1.10;99.90
22635;DHT22;11484;50.858;4.384;2022-12-18T04:05:35;-1.10;99.90
22635;DHT22;11484;50.858;4.384;2022-12-18T04:08:03;-1.20;99.90
22635;DHT22;11484;50.858;4.384;2022-12-18T04:10:29;-1.10;99.90
22635;DHT22;11484;50.858;4.384;2022-12-18T04:12:56;-1.00;99.90
22635;DHT22;11484;50.858;4.384;2022-12-18T04:15:22;-1.10;99.90
22635;DHT22;11484;50.858;4.384;2022-12-18T04:17:49;-1.20;99.90
22635;DHT22;11484;50.858;4.384;2022-12-18T04:20:15;-1.30;99.90
22635;DHT22;11484;50.858;4.384;2022-12-18T04:22:42;-1.40;99.90
22635;DHT22;11484;50.858;4.384;2022-12-18T04:25:08;-1.40;99.90
22635;DHT22;11484;50.858;4.384;2022-12-18T04:27:33;-1.30;99.90
22635;DHT22;11484;50.858;4.384;2022-12-18T04:29:59;-1.20;99.90
22635;DHT22;11484;50.858;4.384;2022-12-18T04:32:25;-1.20;99.90
22635;DHT22;11484;50.858;4.384;2022-12-18T04:34:51;-1.20;99.90
22635;DHT22;11484;50.858;4.384;2022-12-18T04:37:17;-1.10;99.90
22635;DHT22;11484;50.858;4.384;2022-12-18T04:39:43;-1.00;99.90
22635;DHT22;11484;50.858;4.384;2022-12-18T04:42:08;-1.00;99.90
22635;DHT22;11484;50.858;4.384;2022-12-18T04:44:34;-1.10;99.90
22635;DHT22;11484;50.858;4.384;2022-12-18T04:47:01;-1.00;99.90
22635;DHT22;11484;50.858;4.384;2022-12-18T04:49:27;-1.10;99.90
22635;DHT22;11484;50.858;4.384;2022-12-18T04:51:52;-1.10;99.90
22635;DHT22;11484;50.858;4.384;2022-12-18T04:54:18;-1.10;99.90
22635;DHT22;11484;50.858;4.384;2022-12-18T04:56:44;-1.00;99.90
22635;DHT22;11484;50.858;4.384;2022-12-18T04:59:09;-0.90;99.90
22635;DHT22;11484;50.858;4.384;2022-12-18T05:01:35;-1.10;99.90
22635;DHT22;11484;50.858;4.384;2022-12-18T05:04:02;-1.10;99.90
22635;DHT22;11484;50.858;4.384;2022-12-18T05:06:28;-1.10;99.90
22635;DHT22;11484;50.858;4.384;2022-12-18T05:08:53;-1.10;99.90
22635;DHT22;11484;50.858;4.384;2022-12-18T05:11:19;-1.10;99.90
22635;DHT22;11484;50.858;4.384;2022-12-18T05:13:45;-1.20;99.90
22635;DHT22;11484;50.858;4.384;2022-12-18T05:16:12;-1.20;99.90
22635;DHT22;11484;50.858;4.384;2022-12-18T05:18:39;-1.20;99.90
22635;DHT22;11484;50.858;4.384;2022-12-18T05:21:05;-1.20;99.90
22635;DHT22;11484;50.858;4.384;2022-12-18T05:23:31;-1.20;99.90
22635;DHT22;11484;50.858;4.384;2022-12-18T05:26:02;-1.10;99.90
22635;DHT22;11484;50.858;4.384;2022-12-18T05:28:29;-1.20;99.90
22635;DHT22;11484;50.858;4.384;2022-12-18T05:30:57;-1.10;99.90
22635;DHT22;11484;50.858;4.384;2022-12-18T05:33:25;-1.10;99.90
22635;DHT22;11484;50.858;4.384;2022-12-18T05:35:53;-1.10;99.90
22635;DHT22;11484;50.858;4.384;2022-12-18T05:38:20;-1.10;99.90
22635;DHT22;11484;50.858;4.384;2022-12-18T05:40:48;-1.20;99.90
22635;DHT22;11484;50.858;4.384;2022-12-18T05:43:13;-1.20;99.90
22635;DHT22;11484;50.858;4.384;2022-12-18T05:45:40;-1.10;99.90
22635;DHT22;11484;50.858;4.384;2022-12-18T05:48:06;-1.20;99.90
22635;DHT22;11484;50.858;4.384;2022-12-18T05:50:36;-1.30;99.90
22635;DHT22;11484;50.858;4.384;2022-12-18T05:53:03;-1.30;99.90
22635;DHT22;11484;50.858;4.384;2022-12-18T05:55:32;-1.30;99.90
22635;DHT22;11484;50.858;4.384;2022-12-18T05:57:58;-1.30;99.90
22635;DHT22;11484;50.858;4.384;2022-12-18T06:00:26;-1.20;99.90
22635;DHT22;11484;50.858;4.384;2022-12-18T06:02:52;-1.00;99.90
22635;DHT22;11484;50.858;4.384;2022-12-18T06:05:17;-1.00;99.90
22635;DHT22;11484;50.858;4.384;2022-12-18T06:07:43;-1.00;99.90
22635;DHT22;11484;50.858;4.384;2022-12-18T06:10:09;-0.90;99.90
22635;DHT22;11484;50.858;4.384;2022-12-18T06:12:34;-1.00;99.90
22635;DHT22;11484;50.858;4.384;2022-12-18T06:15:00;-1.00;99.90
22635;DHT22;11484;50.858;4.384;2022-12-18T06:17:30;-1.10;99.90
22635;DHT22;11484;50.858;4.384;2022-12-18T06:19:56;-1.10;99.90
22635;DHT22;11484;50.858;4.384;2022-12-18T06:22:21;-1.10;99.90
22635;DHT22;11484;50.858;4.384;2022-12-18T06:24:47;-1.10;99.90
22635;DHT22;11484;50.858;4.384;2022-12-18T06:27:13;-1.20;99.90
22635;DHT22;11484;50.858;4.384;2022-12-18T06:29:39;-1.10;99.90
22635;DHT22;11484;50.858;4.384;2022-12-18T06:32:05;-1.20;99.90
22635;DHT22;11484;50.858;4.384;2022-12-18T06:34:31;-1.10;99.90
22635;DHT22;11484;50.858;4.384;2022-12-18T06:36:56;-1.10;99.90
22635;DHT22;11484;50.858;4.384;2022-12-18T06:39:22;-1.00;99.90
22635;DHT22;11484;50.858;4.384;2022-12-18T06:41:48;-1.00;99.90
22635;DHT22;11484;50.858;4.384;2022-12-18T06:44:13;-1.00;99.90
22635;DHT22;11484;50.858;4.384;2022-12-18T06:46:39;-1.00;99.90
22635;DHT22;11484;50.858;4.384;2022-12-18T06:49:05;-1.10;99.90
22635;DHT22;11484;50.858;4.384;2022-12-18T06:51:30;-1.10;99.90
22635;DHT22;11484;50.858;4.384;2022-12-18T06:53:56;-1.10;99.90
22635;DHT22;11484;50.858;4.384;2022-12-18T06:56:22;-1.10;99.90
22635;DHT22;11484;50.858;4.384;2022-12-18T06:58:47;-1.00;99.90
22635;DHT22;11484;50.858;4.384;2022-12-18T07:01:13;-0.90;99.90
22635;DHT22;11484;50.858;4.384;2022-12-18T07:03:40;-1.00;99.90
22635;DHT22;11484;50.858;4.384;2022-12-18T07:06:11;-1.00;99.90
22635;DHT22;11484;50.858;4.384;2022-12-18T07:08:37;-1.00;99.90
22635;DHT22;11484;50.858;4.384;2022-12-18T07:11:04;-1.00;99.90
22635;DHT22;11484;50.858;4.384;2022-12-18T07:13:30;-0.90;99.90
22635;DHT22;11484;50.858;4.384;2022-12-18T07:16:03;-0.90;99.90
22635;DHT22;11484;50.858;4.384;2022-12-18T07:18:29;-0.90;99.90
22635;DHT22;11484;50.858;4.384;2022-12-18T07:20:55;-0.90;99.90
22635;DHT22;11484;50.858;4.384;2022-12-18T07:23:20;-1.00;99.90
22635;DHT22;11484;50.858;4.384;2022-12-18T07:25:46;-0.90;99.90
22635;DHT22;11484;50.858;4.384;2022-12-18T07:28:12;-1.00;99.90
22635;DHT22;11484;50.858;4.384;2022-12-18T07:30:38;-0.90;99.90
22635;DHT22;11484;50.858;4.384;2022-12-18T07:33:03;-1.00;99.90
22635;DHT22;11484;50.858;4.384;2022-12-18T07:35:29;-1.00;99.90
22635;DHT22;11484;50.858;4.384;2022-12-18T07:37:55;-0.90;99.90
22635;DHT22;11484;50.858;4.384;2022-12-18T07:40:21;-0.90;99.90
22635;DHT22;11484;50.858;4.384;2022-12-18T07:42:47;-0.90;99.90
22635;DHT22;11484;50.858;4.384;2022-12-18T07:45:13;-0.90;99.90
22635;DHT22;11484;50.858;4.384;2022-12-18T07:47:38;-1.00;99.90
22635;DHT22;11484;50.858;4.384;2022-12-18T07:50:06;-1.00;99.90
22635;DHT22;11484;50.858;4.384;2022-12-18T07:52:32;-1.00;99.90
22635;DHT22;11484;50.858;4.384;2022-12-18T07:54:58;-1.00;99.90
22635;DHT22;11484;50.858;4.384;2022-12-18T07:57:24;-0.90;99.90
22635;DHT22;11484;50.858;4.384;2022-12-18T07:59:49;-1.00;99.90
22635;DHT22;11484;50.858;4.384;2022-12-18T08:02:15;-1.10;99.90
22635;DHT22;11484;50.858;4.384;2022-12-18T08:04:41;-1.00;99.90
22635;DHT22;11484;50.858;4.384;2022-12-18T08:07:06;-0.90;99.90
22635;DHT22;11484;50.858;4.384;2022-12-18T08:09:32;-0.90;99.90
22635;DHT22;11484;50.858;4.384;2022-12-18T08:11:58;-0.80;99.90
22635;DHT22;11484;50.858;4.384;2022-12-18T08:14:24;-0.70;99.90
22635;DHT22;11484;50.858;4.384;2022-12-18T08:16:49;-0.70;99.90
22635;DHT22;11484;50.858;4.384;2022-12-18T08:19:15;-0.70;99.90
22635;DHT22;11484;50.858;4.384;2022-12-18T08:21:41;-0.70;99.90
22635;DHT22;11484;50.858;4.384;2022-12-18T08:24:09;-0.80;99.90
22635;DHT22;11484;50.858;4.384;2022-12-18T08:26:35;-0.60;99.90
22635;DHT22;11484;50.858;4.384;2022-12-18T08:29:01;-0.60;99.90
22635;DHT22;11484;50.858;4.384;2022-12-18T08:31:28;-0.60;99.90
22635;DHT22;11484;50.858;4.384;2022-12-18T08:33:55;-0.60;99.90
22635;DHT22;11484;50.858;4.384;2022-12-18T08:36:21;-0.60;99.90
22635;DHT22;11484;50.858;4.384;2022-12-18T08:38:47;-0.40;99.90
22635;DHT22;11484;50.858;4.384;2022-12-18T08:41:15;-0.30;99.90
22635;DHT22;11484;50.858;4.384;2022-12-18T08:43:41;-0.30;99.90
22635;DHT22;11484;50.858;4.384;2022-12-18T08:46:27;-0.30;99.90
22635;DHT22;11484;50.858;4.384;2022-12-18T08:48:56;-0.30;99.90
22635;DHT22;11484;50.858;4.384;2022-12-18T08:51:22;-0.20;99.90
22635;DHT22;11484;50.858;4.384;2022-12-18T08:53:47;-0.10;99.90
22635;DHT22;11484;50.858;4.384;2022-12-18T08:56:14;0.00;99.90
22635;DHT22;11484;50.858;4.384;2022-12-18T08:58:40;0.10;99.90
22635;DHT22;11484;50.858;4.384;2022-12-18T09:01:08;0.10;99.90
22635;DHT22;11484;50.858;4.384;2022-12-18T09:03:35;0.10;99.90
22635;DHT22;11484;50.858;4.384;2022-12-18T09:06:01;0.20;99.90
22635;DHT22;11484;50.858;4.384;2022-12-18T09:08:27;0.20;99.90
22635;DHT22;11484;50.858;4.384;2022-12-18T09:10:53;0.30;99.90
22635;DHT22;11484;50.858;4.384;2022-12-18T09:13:19;0.50;99.90
22635;DHT22;11484;50.858;4.384;2022-12-18T09:15:48;0.60;99.90
22635;DHT22;11484;50.858;4.384;2022-12-18T09:18:15;0.70;99.90
22635;DHT22;11484;50.858;4.384;2022-12-18T09:20:41;0.90;99.90
22635;DHT22;11484;50.858;4.384;2022-12-18T09:23:08;1.00;99.90
22635;DHT22;11484;50.858;4.384;2022-12-18T09:25:35;1.00;99.90
22635;DHT22;11484;50.858;4.384;2022-12-18T09:28:06;1.20;99.90
22635;DHT22;11484;50.858;4.384;2022-12-18T09:30:32;1.30;99.90
22635;DHT22;11484;50.858;4.384;2022-12-18T09:33:01;1.30;99.90
22635;DHT22;11484;50.858;4.384;2022-12-18T09:35:26;1.30;99.90
22635;DHT22;11484;50.858;4.384;2022-12-18T09:37:53;1.40;99.90
22635;DHT22;11484;50.858;4.384;2022-12-18T09:40:22;1.50;99.90
22635;DHT22;11484;50.858;4.384;2022-12-18T09:42:54;1.40;99.90
22635;DHT22;11484;50.858;4.384;2022-12-18T09:45:21;1.30;99.90
22635;DHT22;11484;50.858;4.384;2022-12-18T09:47:48;1.40;99.90
22635;DHT22;11484;50.858;4.384;2022-12-18T09:50:32;1.30;99.90
22635;DHT22;11484;50.858;4.384;2022-12-18T09:53:04;1.30;99.90
22635;DHT22;11484;50.858;4.384;2022-12-18T09:55:37;1.40;99.90
22635;DHT22;11484;50.858;4.384;2022-12-18T10:00:53;1.60;99.90
22635;DHT22;11484;50.858;4.384;2022-12-18T10:03:19;1.80;99.90
22635;DHT22;11484;50.858;4.384;2022-12-18T10:06:14;1.80;99.90
22635;DHT22;11484;50.858;4.384;2022-12-18T10:09:11;2.00;99.90
22635;DHT22;11484;50.858;4.384;2022-12-18T10:14:41;2.00;99.90
22635;DHT22;11484;50.858;4.384;2022-12-18T10:17:45;2.00;99.90
22635;DHT22;11484;50.858;4.384;2022-12-18T10:20:30;2.10;99.90
22635;DHT22;11484;50.858;4.384;2022-12-18T10:26:02;2.30;99.90
22635;DHT22;11484;50.858;4.384;2022-12-18T10:28:30;2.40;99.90
22635;DHT22;11484;50.858;4.384;2022-12-18T10:30:56;2.50;99.90
22635;DHT22;11484;50.858;4.384;2022-12-18T10:33:27;2.60;99.90
22635;DHT22;11484;50.858;4.384;2022-12-18T10:35:54;2.60;99.90
22635;DHT22;11484;50.858;4.384;2022-12-18T10:38:29;2.70;99.90
22635;DHT22;11484;50.858;4.384;2022-12-18T10:40:56;2.50;99.90
22635;DHT22;11484;50.858;4.384;2022-12-18T10:43:28;2.50;99.90
22635;DHT22;11484;50.858;4.384;2022-12-18T10:46:01;2.50;99.90
22635;DHT22;11484;50.858;4.384;2022-12-18T10:48:27;2.60;99.90
22635;DHT22;11484;50.858;4.384;2022-12-18T10:50:53;2.70;99.90
22635;DHT22;11484;50.858;4.384;2022-12-18T10:53:27;2.60;99.90
22635;DHT22;11484;50.858;4.384;2022-12-18T10:55:55;2.60;99.90
22635;DHT22;11484;50.858;4.384;2022-12-18T10:58:27;2.60;99.90
22635;DHT22;11484;50.858;4.384;2022-12-18T11:03:40;2.60;99.90
22635;DHT22;11484;50.858;4.384;2022-12-18T11:06:15;2.50;99.90
22635;DHT22;11484;50.858;4.384;2022-12-18T11:08:43;2.40;99.90
22635;DHT22;11484;50.858;4.384;2022-12-18T11:11:20;2.30;99.90
22635;DHT22;11484;50.858;4.384;2022-12-18T11:14:16;2.40;99.90
22635;DHT22;11484;50.858;4.384;2022-12-18T11:16:45;2.40;99.90
22635;DHT22;11484;50.858;4.384;2022-12-18T11:19:33;2.50;99.90
22635;DHT22;11484;50.858;4.384;2022-12-18T11:22:00;2.70;99.90
22635;DHT22;11484;50.858;4.384;2022-12-18T11:24:36;2.80;99.90
22635;DHT22;11484;50.858;4.384;2022-12-18T11:27:04;2.90;99.90
22635;DHT22;11484;50.858;4.384;2022-12-18T11:32:20;3.20;99.90
22635;DHT22;11484;50.858;4.384;2022-12-18T11:34:53;3.30;99.90
22635;DHT22;11484;50.858;4.384;2022-12-18T11:37:20;3.30;99.90
22635;DHT22;11484;50.858;4.384;2022-12-18T11:39:51;3.40;99.90
22635;DHT22;11484;50.858;4.384;2022-12-18T11:42:35;3.40;99.90
22635;DHT22;11484;50.858;4.384;2022-12-18T11:45:28;3.50;99.90
22635;DHT22;11484;50.858;4.384;2022-12-18T11:48:17;3.50;99.90
22635;DHT22;11484;50.858;4.384;2022-12-18T11:50:55;3.40;99.90
22635;DHT22;11484;50.858;4.384;2022-12-18T11:53:21;3.40;99.90
22635;DHT22;11484;50.858;4.384;2022-12-18T12:04:12;3.70;99.90
22635;DHT22;11484;50.858;4.384;2022-12-18T12:26:11;3.40;99.90
22635;DHT22;11484;50.858;4.384;2022-12-18T12:37:53;3.60;99.90
22635;DHT22;11484;50.858;4.384;2022-12-18T12:40:26;3.70;99.90
22635;DHT22;11484;50.858;4.384;2022-12-18T12:45:55;3.60;99.90
22635;DHT22;11484;50.858;4.384;2022-12-18T12:51:26;3.60;99.90
22635;DHT22;11484;50.858;4.384;2022-12-18T12:53:55;3.50;99.90
22635;DHT22;11484;50.858;4.384;2022-12-18T12:56:22;3.30;99.90
22635;DHT22;11484;50.858;4.384;2022-12-18T13:04:36;3.50;99.90
22635;DHT22;11484;50.858;4.384;2022-12-18T13:07:08;3.60;99.90
22635;DHT22;11484;50.858;4.384;2022-12-18T13:16:06;3.80;99.90
22635;DHT22;11484;50.858;4.384;2022-12-18T13:18:33;4.00;99.90
22635;DHT22;11484;50.858;4.384;2022-12-18T13:23:27;3.90;99.90
22635;DHT22;11484;50.858;4.384;2022-12-18T13:31:00;3.70;99.90
22635;DHT22;11484;50.858;4.384;2022-12-18T13:36:26;3.80;99.90
22635;DHT22;11484;50.858;4.384;2022-12-18T13:41:37;3.70;99.90
22635;DHT22;11484;50.858;4.384;2022-12-18T13:46:53;3.40;99.90
22635;DHT22;11484;50.858;4.384;2022-12-18T13:49:23;3.40;99.90
22635;DHT22;11484;50.858;4.384;2022-12-18T13:51:51;3.40;99.90
22635;DHT22;11484;50.858;4.384;2022-12-18T13:56:47;3.50;99.90
22635;DHT22;11484;50.858;4.384;2022-12-18T13:59:20;3.50;99.90
22635;DHT22;11484;50.858;4.384;2022-12-18T14:02:05;3.60;99.90
22635;DHT22;11484;50.858;4.384;2022-12-18T14:04:34;3.50;99.90
22635;DHT22;11484;50.858;4.384;2022-12-18T14:07:12;3.40;99.90
22635;DHT22;11484;50.858;4.384;2022-12-18T14:09:44;3.40;99.90
22635;DHT22;11484;50.858;4.384;2022-12-18T14:12:37;3.50;99.90
22635;DHT22;11484;50.858;4.384;2022-12-18T14:15:38;3.60;99.90
22635;DHT22;11484;50.858;4.384;2022-12-18T14:20:48;3.50;99.90
22635;DHT22;11484;50.858;4.384;2022-12-18T14:23:38;3.30;99.90
22635;DHT22;11484;50.858;4.384;2022-12-18T14:26:23;3.30;99.90
22635;DHT22;11484;50.858;4.384;2022-12-18T14:28:50;3.30;99.90
22635;DHT22;11484;50.858;4.384;2022-12-18T14:31:20;3.20;99.90
22635;DHT22;11484;50.858;4.384;2022-12-18T14:33:46;3.20;99.90
22635;DHT22;11484;50.858;4.384;2022-12-18T14:36:17;3.20;99.90
22635;DHT22;11484;50.858;4.384;2022-12-18T14:38:43;3.20;99.90
22635;DHT22;11484;50.858;4.384;2022-12-18T14:41:15;3.30;99.90
22635;DHT22;11484;50.858;4.384;2022-12-18T14:43:44;3.30;99.90
22635;DHT22;11484;50.858;4.384;2022-12-18T14:46:37;3.30;99.90
22635;DHT22;11484;50.858;4.384;2022-12-18T14:51:36;3.10;99.90
22635;DHT22;11484;50.858;4.384;2022-12-18T14:54:05;3.10;99.90
22635;DHT22;11484;50.858;4.384;2022-12-18T14:56:36;3.20;99.90
22635;DHT22;11484;50.858;4.384;2022-12-18T14:59:21;3.20;99.90
22635;DHT22;11484;50.858;4.384;2022-12-18T15:01:58;3.20;99.90
22635;DHT22;11484;50.858;4.384;2022-12-18T15:04:34;3.20;99.90
22635;DHT22;11484;50.858;4.384;2022-12-18T15:07:17;3.10;99.90
22635;DHT22;11484;50.858;4.384;2022-12-18T15:20:54;2.90;99.90
22635;DHT22;11484;50.858;4.384;2022-12-18T15:26:06;2.90;99.90
22635;DHT22;11484;50.858;4.384;2022-12-18T15:28:53;2.90;99.90
22635;DHT22;11484;50.858;4.384;2022-12-18T15:31:31;2.80;99.90
22635;DHT22;11484;50.858;4.384;2022-12-18T15:34:00;2.80;99.90
22635;DHT22;11484;50.858;4.384;2022-12-18T15:36:29;2.80;99.90
22635;DHT22;11484;50.858;4.384;2022-12-18T15:38:56;2.80;99.90
22635;DHT22;11484;50.858;4.384;2022-12-18T15:41:23;2.80;99.90
22635;DHT22;11484;50.858;4.384;2022-12-18T15:43:50;2.80;99.90
22635;DHT22;11484;50.858;4.384;2022-12-18T15:46:25;2.90;99.90
22635;DHT22;11484;50.858;4.384;2022-12-18T15:48:54;2.90;99.90
22635;DHT22;11484;50.858;4.384;2022-12-18T15:51:32;2.90;99.90
22635;DHT22;11484;50.858;4.384;2022-12-18T15:54:01;2.90;99.90
22635;DHT22;11484;50.858;4.384;2022-12-18T15:56:29;2.90;99.90
22635;DHT22;11484;50.858;4.384;2022-12-18T15:59:18;3.00;99.90
22635;DHT22;11484;50.858;4.384;2022-12-18T16:01:47;3.00;99.90
22635;DHT22;11484;50.858;4.384;2022-12-18T16:04:15;3.00;99.90
22635;DHT22;11484;50.858;4.384;2022-12-18T16:06:41;3.00;99.90
22635;DHT22;11484;50.858;4.384;2022-12-18T16:09:08;3.00;99.90
22635;DHT22;11484;50.858;4.384;2022-12-18T16:11:36;3.00;99.90
22635;DHT22;11484;50.858;4.384;2022-12-18T16:14:22;3.20;99.90
22635;DHT22;11484;50.858;4.384;2022-12-18T16:16:53;3.20;99.90
22635;DHT22;11484;50.858;4.384;2022-12-18T16:19:20;3.20;99.90
22635;DHT22;11484;50.858;4.384;2022-12-18T16:21:47;3.20;99.90
22635;DHT22;11484;50.858;4.384;2022-12-18T16:24:19;3.30;99.90
22635;DHT22;11484;50.858;4.384;2022-12-18T16:26:47;3.30;99.90
22635;DHT22;11484;50.858;4.384;2022-12-18T16:29:14;3.30;99.90
22635;DHT22;11484;50.858;4.384;2022-12-18T16:31:41;3.20;99.90
22635;DHT22;11484;50.858;4.384;2022-12-18T16:34:22;3.20;99.90
22635;DHT22;11484;50.858;4.384;2022-12-18T16:37:06;3.00;99.90
22635;DHT22;11484;50.858;4.384;2022-12-18T16:39:35;2.90;99.90
22635;DHT22;11484;50.858;4.384;2022-12-18T16:42:09;2.90;99.90
22635;DHT22;11484;50.858;4.384;2022-12-18T16:44:37;2.90;99.90
22635;DHT22;11484;50.858;4.384;2022-12-18T16:47:03;2.90;99.90
22635;DHT22;11484;50.858;4.384;2022-12-18T16:49:29;2.90;99.90
22635;DHT22;11484;50.858;4.384;2022-12-18T16:51:55;2.90;99.90
22635;DHT22;11484;50.858;4.384;2022-12-18T16:54:21;3.00;99.90
22635;DHT22;11484;50.858;4.384;2022-12-18T16:56:47;3.10;99.90
22635;DHT22;11484;50.858;4.384;2022-12-18T16:59:19;3.10;99.90
22635;DHT22;11484;50.858;4.384;2022-12-18T17:01:45;3.10;99.90
22635;DHT22;11484;50.858;4.384;2022-12-18T17:04:14;3.10;99.90
22635;DHT22;11484;50.858;4.384;2022-12-18T17:06:43;3.10;99.90
22635;DHT22;11484;50.858;4.384;2022-12-18T17:09:21;3.00;99.90
22635;DHT22;11484;50.858;4.384;2022-12-18T17:11:51;3.10;99.90
22635;DHT22;11484;50.858;4.384;2022-12-18T17:14:19;3.10;99.90
22635;DHT22;11484;50.858;4.384;2022-12-18T17:16:51;3.20;99.90
22635;DHT22;11484;50.858;4.384;2022-12-18T17:19:17;3.30;99.90
22635;DHT22;11484;50.858;4.384;2022-12-18T17:21:44;3.30;99.90
22635;DHT22;11484;50.858;4.384;2022-12-18T17:24:11;3.40;99.90
22635;DHT22;11484;50.858;4.384;2022-12-18T17:26:37;3.40;99.90
22635;DHT22;11484;50.858;4.384;2022-12-18T17:29:14;3.40;99.90
22635;DHT22;11484;50.858;4.384;2022-12-18T17:31:43;3.50;99.90
22635;DHT22;11484;50.858;4.384;2022-12-18T17:34:10;3.40;99.90
22635;DHT22;11484;50.858;4.384;2022-12-18T17:36:36;3.40;99.90
22635;DHT22;11484;50.858;4.384;2022-12-18T17:39:03;3.40;99.90
22635;DHT22;11484;50.858;4.384;2022-12-18T17:41:30;3.40;99.90
22635;DHT22;11484;50.858;4.384;2022-12-18T17:44:03;3.40;99.90
22635;DHT22;11484;50.858;4.384;2022-12-18T17:46:32;3.40;99.90
22635;DHT22;11484;50.858;4.384;2022-12-18T17:49:00;3.30;99.90
22635;DHT22;11484;50.858;4.384;2022-12-18T17:51:27;3.20;99.90
22635;DHT22;11484;50.858;4.384;2022-12-18T17:53:54;3.20;99.90
22635;DHT22;11484;50.858;4.384;2022-12-18T17:56:26;3.10;99.90
22635;DHT22;11484;50.858;4.384;2022-12-18T17:58:53;3.00;99.90
22635;DHT22;11484;50.858;4.384;2022-12-18T18:01:22;2.90;99.90
22635;DHT22;11484;50.858;4.384;2022-12-18T18:03:48;2.90;99.90
22635;DHT22;11484;50.858;4.384;2022-12-18T18:06:14;2.80;99.90